Terminal Aerodrome Forecast
Issued by NWS Grand Forks, ND

Home | Current Version | Previous Version | Text Only | Print | Product List | Glossary Off
Versions: 1 2 3 4 5 6 7 8 9 10 11 12 13 14 15

239
FTUS43 KFGF 230520
TAFFAR
TAF
KFAR 230520Z 2306/2406 VRB05KT P6SM BKN250
     FM231100 12007KT P6SM VCTS BKN250CB
     FM231500 13010KT P6SM BKN200
     FM231800 14012KT P6SM VCTS BKN090CB
     FM232300 19009KT P6SM VCTS BKN090CB
     FM240300 26006KT P6SM FEW250=

USA.gov is the U.S. government's official web portal to all federal, state and local government web resources and services.